Gallagher, West Virginia
Current Conditions -  °F | °C
As of 8:54 PM on Tuesday 21 Oct 2014 (Local Time) from KCRW Reporting Station
Light Rain Light Rain  
Wind Chill: 42°   Ceiling: 1800
Heat Index: 48°   Visibility: 5mi
Dew Point: 44°   Wind: 14mph
Humidity: 86%   Direction: 330°NNW
Pressure: 30.06"   Gusts: 22mph
Location:  38.17°N, 81.4°W
Report Text: KCRW 220054Z 33012G19KT 5SM -RA BR FEW007 BKN018 OVC028 09/07 A3006 RMK AO2 SLP181 P0009 T00890067
Loading
Personal Weather Stations






























Interactive Weather Map
Tropical Storm Tracking
New forecast layout! Learn more

10-Day Weather Forecast

Advertisements
Track Severe Weather on mobile